sensor_id;sensor_type;location;lat;lon;timestamp;temperature;humidity
6468;DHT22;3267;48.794;9.928;2023-03-01T09:21:09;5.70;70.30
6468;DHT22;3267;48.794;9.928;2023-03-01T09:23:37;5.50;65.30
6468;DHT22;3267;48.794;9.928;2023-03-01T09:31:00;5.60;74.60
6468;DHT22;3267;48.794;9.928;2023-03-01T09:33:28;5.70;75.10
6468;DHT22;3267;48.794;9.928;2023-03-01T09:36:02;5.80;76.70
6468;DHT22;3267;48.794;9.928;2023-03-01T09:43:56;6.10;65.30
6468;DHT22;3267;48.794;9.928;2023-03-01T09:46:24;6.20;69.10
6468;DHT22;3267;48.794;9.928;2023-03-01T09:48:55;6.10;64.30
6468;DHT22;3267;48.794;9.928;2023-03-01T09:51:35;6.20;65.00
6468;DHT22;3267;48.794;9.928;2023-03-01T09:54:05;6.10;66.60
6468;DHT22;3267;48.794;9.928;2023-03-01T09:56:53;6.20;65.10
6468;DHT22;3267;48.794;9.928;2023-03-01T10:00:13;6.70;66.70
6468;DHT22;3267;48.794;9.928;2023-03-01T10:02:46;6.70;64.90
6468;DHT22;3267;48.794;9.928;2023-03-01T10:10:40;6.90;64.80
6468;DHT22;3267;48.794;9.928;2023-03-01T10:13:21;7.10;63.70
6468;DHT22;3267;48.794;9.928;2023-03-01T10:16:13;7.10;64.50
6468;DHT22;3267;48.794;9.928;2023-03-01T10:18:41;7.10;65.40
6468;DHT22;3267;48.794;9.928;2023-03-01T10:21:18;7.30;63.80
6468;DHT22;3267;48.794;9.928;2023-03-01T10:23:44;7.60;65.20
6468;DHT22;3267;48.794;9.928;2023-03-01T10:26:20;7.70;65.00
6468;DHT22;3267;48.794;9.928;2023-03-01T10:29:08;7.70;65.10
6468;DHT22;3267;48.794;9.928;2023-03-01T10:31:48;7.70;63.50
6468;DHT22;3267;48.794;9.928;2023-03-01T10:34:16;8.00;65.40
6468;DHT22;3267;48.794;9.928;2023-03-01T10:36:43;7.90;64.00
6468;DHT22;3267;48.794;9.928;2023-03-01T10:39:19;7.90;62.80
6468;DHT22;3267;48.794;9.928;2023-03-01T10:42:05;8.10;63.30
6468;DHT22;3267;48.794;9.928;2023-03-01T10:44:44;8.30;62.70
6468;DHT22;3267;48.794;9.928;2023-03-01T10:47:28;8.10;62.20
6468;DHT22;3267;48.794;9.928;2023-03-01T10:50:01;8.50;61.40
6468;DHT22;3267;48.794;9.928;2023-03-01T10:52:35;8.50;63.10
6468;DHT22;3267;48.794;9.928;2023-03-01T10:57:36;8.80;61.10
6468;DHT22;3267;48.794;9.928;2023-03-01T11:00:19;8.90;62.20
6468;DHT22;3267;48.794;9.928;2023-03-01T11:03:02;8.90;63.40
6468;DHT22;3267;48.794;9.928;2023-03-01T11:05:28;9.20;61.60
6468;DHT22;3267;48.794;9.928;2023-03-01T11:07:58;9.40;62.30
6468;DHT22;3267;48.794;9.928;2023-03-01T11:10:32;9.30;60.20
6468;DHT22;3267;48.794;9.928;2023-03-01T11:13:08;9.40;61.80
6468;DHT22;3267;48.794;9.928;2023-03-01T11:15:38;9.50;60.80
6468;DHT22;3267;48.794;9.928;2023-03-01T11:18:04;9.60;60.70
6468;DHT22;3267;48.794;9.928;2023-03-01T11:20:36;9.60;61.20
6468;DHT22;3267;48.794;9.928;2023-03-01T11:23:05;9.80;61.20
6468;DHT22;3267;48.794;9.928;2023-03-01T11:25:37;9.80;61.70
6468;DHT22;3267;48.794;9.928;2023-03-01T11:28:06;9.90;62.20
6468;DHT22;3267;48.794;9.928;2023-03-01T11:40:50;10.60;71.80
6468;DHT22;3267;48.794;9.928;2023-03-01T11:59:06;10.70;69.70
6468;DHT22;3267;48.794;9.928;2023-03-01T12:06:59;11.10;69.30
6468;DHT22;3267;48.794;9.928;2023-03-01T12:18:08;11.50;65.00
6468;DHT22;3267;48.794;9.928;2023-03-01T12:26:36;11.70;68.90
6468;DHT22;3267;48.794;9.928;2023-03-01T12:29:19;11.90;68.40
6468;DHT22;3267;48.794;9.928;2023-03-01T12:34:34;11.80;68.20
6468;DHT22;3267;48.794;9.928;2023-03-01T12:53:28;12.10;69.20
6468;DHT22;3267;48.794;9.928;2023-03-01T12:56:10;12.00;67.00
6468;DHT22;3267;48.794;9.928;2023-03-01T13:01:26;12.10;69.20
6468;DHT22;3267;48.794;9.928;2023-03-01T13:11:42;12.50;70.60
6468;DHT22;3267;48.794;9.928;2023-03-01T13:21:45;12.60;67.60
6468;DHT22;3267;48.794;9.928;2023-03-01T13:32:25;13.00;69.60
6468;DHT22;3267;48.794;9.928;2023-03-01T13:37:36;13.60;70.50
6468;DHT22;3267;48.794;9.928;2023-03-01T13:47:52;14.20;68.10
6468;DHT22;3267;48.794;9.928;2023-03-01T13:50:23;14.20;69.60
6468;DHT22;3267;48.794;9.928;2023-03-01T13:52:59;14.20;68.80
6468;DHT22;3267;48.794;9.928;2023-03-01T13:55:40;14.40;67.70
6468;DHT22;3267;48.794;9.928;2023-03-01T14:03:17;15.00;68.30
6468;DHT22;3267;48.794;9.928;2023-03-01T14:16:24;16.20;66.70
6468;DHT22;3267;48.794;9.928;2023-03-01T14:26:23;16.90;64.60
6468;DHT22;3267;48.794;9.928;2023-03-01T14:31:36;17.30;61.90
6468;DHT22;3267;48.794;9.928;2023-03-01T14:41:26;17.90;62.70
6468;DHT22;3267;48.794;9.928;2023-03-01T14:43:58;17.90;63.00
6468;DHT22;3267;48.794;9.928;2023-03-01T14:46:43;18.30;65.30
6468;DHT22;3267;48.794;9.928;2023-03-01T14:51:37;18.10;62.80
6468;DHT22;3267;48.794;9.928;2023-03-01T14:54:10;18.20;63.60
6468;DHT22;3267;48.794;9.928;2023-03-01T14:56:46;18.30;62.80
6468;DHT22;3267;48.794;9.928;2023-03-01T15:01:40;18.40;60.10
6468;DHT22;3267;48.794;9.928;2023-03-01T15:04:10;18.30;60.20
6468;DHT22;3267;48.794;9.928;2023-03-01T15:06:37;18.10;60.60
6468;DHT22;3267;48.794;9.928;2023-03-01T15:11:31;17.50;62.80
6468;DHT22;3267;48.794;9.928;2023-03-01T15:16:32;16.80;67.40
6468;DHT22;3267;48.794;9.928;2023-03-01T15:19:00;16.40;64.00
6468;DHT22;3267;48.794;9.928;2023-03-01T15:21:38;16.00;62.50
6468;DHT22;3267;48.794;9.928;2023-03-01T15:29:20;15.40;67.50
6468;DHT22;3267;48.794;9.928;2023-03-01T15:31:59;15.10;61.20
6468;DHT22;3267;48.794;9.928;2023-03-01T15:34:29;14.90;61.00
6468;DHT22;3267;48.794;9.928;2023-03-01T15:47:34;14.10;54.30
6468;DHT22;3267;48.794;9.928;2023-03-01T15:52:41;13.80;53.40
6468;DHT22;3267;48.794;9.928;2023-03-01T15:57:49;13.60;52.70
6468;DHT22;3267;48.794;9.928;2023-03-01T16:00:16;13.50;52.30
6468;DHT22;3267;48.794;9.928;2023-03-01T16:02:44;13.40;53.20
6468;DHT22;3267;48.794;9.928;2023-03-01T16:07:49;13.40;54.60
6468;DHT22;3267;48.794;9.928;2023-03-01T16:10:16;13.50;54.20
6468;DHT22;3267;48.794;9.928;2023-03-01T16:12:41;13.40;53.80
6468;DHT22;3267;48.794;9.928;2023-03-01T16:15:22;13.30;53.90
6468;DHT22;3267;48.794;9.928;2023-03-01T16:17:48;13.20;53.90
6468;DHT22;3267;48.794;9.928;2023-03-01T16:20:13;13.00;53.70
6468;DHT22;3267;48.794;9.928;2023-03-01T16:22:43;13.00;54.80
6468;DHT22;3267;48.794;9.928;2023-03-01T16:25:14;12.90;53.60
6468;DHT22;3267;48.794;9.928;2023-03-01T16:27:44;12.80;53.60
6468;DHT22;3267;48.794;9.928;2023-03-01T16:30:11;12.80;54.30
6468;DHT22;3267;48.794;9.928;2023-03-01T16:32:38;12.70;54.10
6468;DHT22;3267;48.794;9.928;2023-03-01T16:35:05;12.70;53.40
6468;DHT22;3267;48.794;9.928;2023-03-01T16:37:32;12.90;56.00
6468;DHT22;3267;48.794;9.928;2023-03-01T16:39:58;12.60;54.10
6468;DHT22;3267;48.794;9.928;2023-03-01T16:42:24;12.50;54.20
6468;DHT22;3267;48.794;9.928;2023-03-01T16:44:57;12.50;55.60
6468;DHT22;3267;48.794;9.928;2023-03-01T16:47:22;12.40;55.30
6468;DHT22;3267;48.794;9.928;2023-03-01T16:49:52;12.40;55.10
6468;DHT22;3267;48.794;9.928;2023-03-01T16:52:18;12.30;54.90
6468;DHT22;3267;48.794;9.928;2023-03-01T16:54:44;12.20;55.20
6468;DHT22;3267;48.794;9.928;2023-03-01T16:57:09;12.10;54.90
6468;DHT22;3267;48.794;9.928;2023-03-01T16:59:35;12.00;54.80
6468;DHT22;3267;48.794;9.928;2023-03-01T17:02:01;11.90;54.60
6468;DHT22;3267;48.794;9.928;2023-03-01T17:04:27;12.20;55.20
6468;DHT22;3267;48.794;9.928;2023-03-01T17:06:53;11.70;54.60
6468;DHT22;3267;48.794;9.928;2023-03-01T17:09:18;11.70;54.60
6468;DHT22;3267;48.794;9.928;2023-03-01T17:11:50;11.60;54.80
6468;DHT22;3267;48.794;9.928;2023-03-01T17:14:16;11.50;54.60
6468;DHT22;3267;48.794;9.928;2023-03-01T17:16:43;11.40;54.50
6468;DHT22;3267;48.794;9.928;2023-03-01T17:19:09;11.40;54.60
6468;DHT22;3267;48.794;9.928;2023-03-01T17:21:35;11.30;54.90
6468;DHT22;3267;48.794;9.928;2023-03-01T17:24:02;11.20;54.60
6468;DHT22;3267;48.794;9.928;2023-03-01T17:26:29;11.10;54.90
6468;DHT22;3267;48.794;9.928;2023-03-01T17:28:56;11.00;54.70
6468;DHT22;3267;48.794;9.928;2023-03-01T17:31:22;11.00;54.80
6468;DHT22;3267;48.794;9.928;2023-03-01T17:33:48;11.00;55.00
6468;DHT22;3267;48.794;9.928;2023-03-01T17:36:15;10.90;55.10
6468;DHT22;3267;48.794;9.928;2023-03-01T17:38:41;10.90;55.10
6468;DHT22;3267;48.794;9.928;2023-03-01T17:41:06;10.80;55.20
6468;DHT22;3267;48.794;9.928;2023-03-01T17:43:32;10.80;55.20
6468;DHT22;3267;48.794;9.928;2023-03-01T17:46:01;10.70;55.00
6468;DHT22;3267;48.794;9.928;2023-03-01T17:48:27;10.60;55.00
6468;DHT22;3267;48.794;9.928;2023-03-01T17:50:52;10.50;55.00
6468;DHT22;3267;48.794;9.928;2023-03-01T17:53:18;10.50;55.00
6468;DHT22;3267;48.794;9.928;2023-03-01T17:55:44;10.40;55.30
6468;DHT22;3267;48.794;9.928;2023-03-01T17:58:13;10.40;55.90
6468;DHT22;3267;48.794;9.928;2023-03-01T18:00:39;10.30;55.40
6468;DHT22;3267;48.794;9.928;2023-03-01T18:03:05;10.30;55.40
6468;DHT22;3267;48.794;9.928;2023-03-01T18:05:32;10.30;55.60
6468;DHT22;3267;48.794;9.928;2023-03-01T18:07:58;10.20;55.60
6468;DHT22;3267;48.794;9.928;2023-03-01T18:10:24;10.30;57.60
6468;DHT22;3267;48.794;9.928;2023-03-01T18:12:50;10.30;56.70
6468;DHT22;3267;48.794;9.928;2023-03-01T18:15:16;10.20;56.10
6468;DHT22;3267;48.794;9.928;2023-03-01T18:17:42;12.80;59.70
6468;DHT22;3267;48.794;9.928;2023-03-01T18:20:08;12.40;58.20
6468;DHT22;3267;48.794;9.928;2023-03-01T18:22:34;10.40;57.80
6468;DHT22;3267;48.794;9.928;2023-03-01T18:24:59;10.40;58.20
6468;DHT22;3267;48.794;9.928;2023-03-01T18:27:25;10.40;56.90
6468;DHT22;3267;48.794;9.928;2023-03-01T18:29:51;10.30;57.10
6468;DHT22;3267;48.794;9.928;2023-03-01T18:32:17;12.20;59.60
6468;DHT22;3267;48.794;9.928;2023-03-01T18:34:43;10.30;57.40
6468;DHT22;3267;48.794;9.928;2023-03-01T18:37:09;11.10;58.20
6468;DHT22;3267;48.794;9.928;2023-03-01T18:39:35;10.10;57.30
6468;DHT22;3267;48.794;9.928;2023-03-01T18:42:01;10.30;59.40
6468;DHT22;3267;48.794;9.928;2023-03-01T18:44:28;10.30;58.20
6468;DHT22;3267;48.794;9.928;2023-03-01T18:46:55;10.20;57.20
6468;DHT22;3267;48.794;9.928;2023-03-01T18:49:23;10.00;57.10
6468;DHT22;3267;48.794;9.928;2023-03-01T18:51:48;10.00;57.70
6468;DHT22;3267;48.794;9.928;2023-03-01T18:54:15;9.90;58.50
6468;DHT22;3267;48.794;9.928;2023-03-01T18:56:41;9.90;59.10
6468;DHT22;3267;48.794;9.928;2023-03-01T18:59:06;9.90;58.80
6468;DHT22;3267;48.794;9.928;2023-03-01T19:01:33;9.80;58.70
6468;DHT22;3267;48.794;9.928;2023-03-01T19:03:59;9.70;58.60
6468;DHT22;3267;48.794;9.928;2023-03-01T19:06:30;9.80;59.30
6468;DHT22;3267;48.794;9.928;2023-03-01T19:08:56;9.70;58.50
6468;DHT22;3267;48.794;9.928;2023-03-01T19:11:21;9.70;59.10
6468;DHT22;3267;48.794;9.928;2023-03-01T19:13:52;9.60;58.80
6468;DHT22;3267;48.794;9.928;2023-03-01T19:16:21;9.60;58.90
6468;DHT22;3267;48.794;9.928;2023-03-01T19:18:47;9.50;59.20
6468;DHT22;3267;48.794;9.928;2023-03-01T19:21:15;9.40;58.60
6468;DHT22;3267;48.794;9.928;2023-03-01T19:23:41;9.40;58.80
6468;DHT22;3267;48.794;9.928;2023-03-01T19:26:09;9.40;59.50
6468;DHT22;3267;48.794;9.928;2023-03-01T19:28:36;9.40;59.20
6468;DHT22;3267;48.794;9.928;2023-03-01T19:31:07;9.50;59.10
6468;DHT22;3267;48.794;9.928;2023-03-01T19:33:34;9.40;59.50
6468;DHT22;3267;48.794;9.928;2023-03-01T19:36:01;9.30;59.30
6468;DHT22;3267;48.794;9.928;2023-03-01T19:38:27;9.30;59.80
6468;DHT22;3267;48.794;9.928;2023-03-01T19:40:54;9.20;59.00
6468;DHT22;3267;48.794;9.928;2023-03-01T19:43:20;9.20;58.90
6468;DHT22;3267;48.794;9.928;2023-03-01T19:45:52;9.20;59.30
6468;DHT22;3267;48.794;9.928;2023-03-01T19:48:18;9.10;59.70
6468;DHT22;3267;48.794;9.928;2023-03-01T19:50:44;9.20;60.00
6468;DHT22;3267;48.794;9.928;2023-03-01T19:53:11;9.50;62.30
6468;DHT22;3267;48.794;9.928;2023-03-01T19:55:37;9.30;61.80
6468;DHT22;3267;48.794;9.928;2023-03-01T19:58:04;9.50;59.70
6468;DHT22;3267;48.794;9.928;2023-03-01T20:00:31;9.00;59.20
6468;DHT22;3267;48.794;9.928;2023-03-01T20:02:56;8.90;59.40
6468;DHT22;3267;48.794;9.928;2023-03-01T20:05:22;12.40;62.20
6468;DHT22;3267;48.794;9.928;2023-03-01T20:07:48;9.00;59.90
6468;DHT22;3267;48.794;9.928;2023-03-01T20:10:16;9.00;59.50
6468;DHT22;3267;48.794;9.928;2023-03-01T20:12:42;8.80;59.70
6468;DHT22;3267;48.794;9.928;2023-03-01T20:17:34;8.80;59.90
6468;DHT22;3267;48.794;9.928;2023-03-01T20:27:17;8.80;59.60
6468;DHT22;3267;48.794;9.928;2023-03-01T20:29:43;8.50;59.60
6468;DHT22;3267;48.794;9.928;2023-03-01T20:32:10;8.80;60.00
6468;DHT22;3267;48.794;9.928;2023-03-01T20:34:36;8.50;60.00
6468;DHT22;3267;48.794;9.928;2023-03-01T20:37:02;8.40;60.00
6468;DHT22;3267;48.794;9.928;2023-03-01T20:39:28;8.40;60.00
6468;DHT22;3267;48.794;9.928;2023-03-01T20:41:54;8.20;59.50
6468;DHT22;3267;48.794;9.928;2023-03-01T20:44:19;8.20;59.90
6468;DHT22;3267;48.794;9.928;2023-03-01T20:46:45;8.20;60.50
6468;DHT22;3267;48.794;9.928;2023-03-01T20:49:11;8.10;60.30
6468;DHT22;3267;48.794;9.928;2023-03-01T20:51:36;8.00;60.20
6468;DHT22;3267;48.794;9.928;2023-03-01T20:54:02;8.20;60.40
6468;DHT22;3267;48.794;9.928;2023-03-01T20:56:29;8.20;60.20
6468;DHT22;3267;48.794;9.928;2023-03-01T20:58:55;8.20;60.30
6468;DHT22;3267;48.794;9.928;2023-03-01T21:01:24;8.10;60.10
6468;DHT22;3267;48.794;9.928;2023-03-01T21:03:50;8.30;60.70
6468;DHT22;3267;48.794;9.928;2023-03-01T21:06:16;7.80;60.60
6468;DHT22;3267;48.794;9.928;2023-03-01T21:08:42;7.80;60.10
6468;DHT22;3267;48.794;9.928;2023-03-01T21:11:07;7.90;61.10
6468;DHT22;3267;48.794;9.928;2023-03-01T21:13:34;7.80;61.50
6468;DHT22;3267;48.794;9.928;2023-03-01T21:16:02;7.70;60.40
6468;DHT22;3267;48.794;9.928;2023-03-01T21:18:30;7.60;61.90
6468;DHT22;3267;48.794;9.928;2023-03-01T21:21:04;7.50;62.00
6468;DHT22;3267;48.794;9.928;2023-03-01T21:23:33;7.50;60.60
6468;DHT22;3267;48.794;9.928;2023-03-01T21:26:10;7.40;62.10
6468;DHT22;3267;48.794;9.928;2023-03-01T21:28:37;7.30;60.70
6468;DHT22;3267;48.794;9.928;2023-03-01T21:33:29;7.20;62.80
6468;DHT22;3267;48.794;9.928;2023-03-01T21:36:04;7.10;63.20
6468;DHT22;3267;48.794;9.928;2023-03-01T21:38:31;7.40;63.40
6468;DHT22;3267;48.794;9.928;2023-03-01T21:41:06;7.50;64.40
6468;DHT22;3267;48.794;9.928;2023-03-01T21:43:33;7.00;63.90
6468;DHT22;3267;48.794;9.928;2023-03-01T21:46:01;7.20;64.60
6468;DHT22;3267;48.794;9.928;2023-03-01T21:48:28;7.00;65.30
6468;DHT22;3267;48.794;9.928;2023-03-01T21:50:55;6.60;66.00
6468;DHT22;3267;48.794;9.928;2023-03-01T21:53:21;8.20;63.10
